sensor_id;sensor_type;location;lat;lon;timestamp;temperature;humidity
14473;DHT22;7322;50.872;4.386;2022-09-09T00:00:24;15.70;99.90
14473;DHT22;7322;50.872;4.386;2022-09-09T00:02:57;15.70;99.90
14473;DHT22;7322;50.872;4.386;2022-09-09T00:05:32;15.80;99.90
14473;DHT22;7322;50.872;4.386;2022-09-09T00:08:02;15.90;99.90
14473;DHT22;7322;50.872;4.386;2022-09-09T00:10:34;15.90;99.90
14473;DHT22;7322;50.872;4.386;2022-09-09T00:13:14;15.90;99.90
14473;DHT22;7322;50.872;4.386;2022-09-09T00:15:59;15.90;99.90
14473;DHT22;7322;50.872;4.386;2022-09-09T00:18:42;15.80;99.90
14473;DHT22;7322;50.872;4.386;2022-09-09T00:21:13;15.80;99.90
14473;DHT22;7322;50.872;4.386;2022-09-09T00:23:45;15.80;99.90
14473;DHT22;7322;50.872;4.386;2022-09-09T00:26:18;15.70;99.90
14473;DHT22;7322;50.872;4.386;2022-09-09T00:28:55;15.70;99.90
14473;DHT22;7322;50.872;4.386;2022-09-09T00:31:28;15.70;99.90
14473;DHT22;7322;50.872;4.386;2022-09-09T00:34:00;15.70;99.90
14473;DHT22;7322;50.872;4.386;2022-09-09T00:36:31;15.70;99.90
14473;DHT22;7322;50.872;4.386;2022-09-09T00:39:02;15.70;99.90
14473;DHT22;7322;50.872;4.386;2022-09-09T00:41:39;15.80;99.90
14473;DHT22;7322;50.872;4.386;2022-09-09T00:44:17;15.90;99.90
14473;DHT22;7322;50.872;4.386;2022-09-09T00:46:56;15.90;99.90
14473;DHT22;7322;50.872;4.386;2022-09-09T00:49:36;15.90;99.90
14473;DHT22;7322;50.872;4.386;2022-09-09T00:52:16;16.00;99.90
14473;DHT22;7322;50.872;4.386;2022-09-09T00:54:55;16.00;99.90
14473;DHT22;7322;50.872;4.386;2022-09-09T00:57:27;16.00;99.90
14473;DHT22;7322;50.872;4.386;2022-09-09T01:00:20;16.00;99.90
14473;DHT22;7322;50.872;4.386;2022-09-09T01:02:53;16.00;99.90
14473;DHT22;7322;50.872;4.386;2022-09-09T01:05:30;16.10;99.90
14473;DHT22;7322;50.872;4.386;2022-09-09T01:08:02;16.10;99.90
14473;DHT22;7322;50.872;4.386;2022-09-09T01:10:39;16.00;99.90
14473;DHT22;7322;50.872;4.386;2022-09-09T01:13:28;16.00;99.90
14473;DHT22;7322;50.872;4.386;2022-09-09T01:16:03;16.00;99.90
14473;DHT22;7322;50.872;4.386;2022-09-09T01:18:34;16.00;99.90
14473;DHT22;7322;50.872;4.386;2022-09-09T01:21:24;16.00;99.90
14473;DHT22;7322;50.872;4.386;2022-09-09T01:24:09;16.10;99.90
14473;DHT22;7322;50.872;4.386;2022-09-09T01:26:44;16.10;99.90
14473;DHT22;7322;50.872;4.386;2022-09-09T01:29:13;16.10;99.90
14473;DHT22;7322;50.872;4.386;2022-09-09T01:31:51;16.10;99.90
14473;DHT22;7322;50.872;4.386;2022-09-09T01:34:18;16.00;99.90
14473;DHT22;7322;50.872;4.386;2022-09-09T01:36:49;16.00;99.90
14473;DHT22;7322;50.872;4.386;2022-09-09T01:39:19;16.10;99.90
14473;DHT22;7322;50.872;4.386;2022-09-09T01:41:48;16.00;99.90
14473;DHT22;7322;50.872;4.386;2022-09-09T01:44:16;16.00;99.90
14473;DHT22;7322;50.872;4.386;2022-09-09T01:46:44;15.90;99.90
14473;DHT22;7322;50.872;4.386;2022-09-09T01:49:11;16.00;99.90
14473;DHT22;7322;50.872;4.386;2022-09-09T01:51:41;16.00;99.90
14473;DHT22;7322;50.872;4.386;2022-09-09T01:54:08;16.00;99.90
14473;DHT22;7322;50.872;4.386;2022-09-09T01:56:42;16.00;99.90
14473;DHT22;7322;50.872;4.386;2022-09-09T01:59:25;16.00;99.90
14473;DHT22;7322;50.872;4.386;2022-09-09T02:02:06;16.00;99.90
14473;DHT22;7322;50.872;4.386;2022-09-09T02:04:38;16.10;99.90
14473;DHT22;7322;50.872;4.386;2022-09-09T02:07:15;16.00;99.90
14473;DHT22;7322;50.872;4.386;2022-09-09T02:09:49;15.90;99.90
14473;DHT22;7322;50.872;4.386;2022-09-09T02:12:21;15.90;99.90
14473;DHT22;7322;50.872;4.386;2022-09-09T02:14:55;15.90;99.90
14473;DHT22;7322;50.872;4.386;2022-09-09T02:17:27;16.00;99.90
14473;DHT22;7322;50.872;4.386;2022-09-09T02:20:02;15.90;99.90
14473;DHT22;7322;50.872;4.386;2022-09-09T02:22:31;15.90;99.90
14473;DHT22;7322;50.872;4.386;2022-09-09T02:25:00;15.90;99.90
14473;DHT22;7322;50.872;4.386;2022-09-09T02:27:30;16.00;99.90
14473;DHT22;7322;50.872;4.386;2022-09-09T02:30:00;16.10;99.90
14473;DHT22;7322;50.872;4.386;2022-09-09T02:32:29;16.20;99.90
14473;DHT22;7322;50.872;4.386;2022-09-09T02:35:00;16.20;99.90
14473;DHT22;7322;50.872;4.386;2022-09-09T02:37:33;16.20;99.90
14473;DHT22;7322;50.872;4.386;2022-09-09T02:40:03;16.10;99.90
14473;DHT22;7322;50.872;4.386;2022-09-09T02:42:30;16.10;99.90
14473;DHT22;7322;50.872;4.386;2022-09-09T02:44:59;16.20;99.90
14473;DHT22;7322;50.872;4.386;2022-09-09T02:47:29;16.20;99.90
14473;DHT22;7322;50.872;4.386;2022-09-09T02:50:07;16.20;99.90
14473;DHT22;7322;50.872;4.386;2022-09-09T02:52:44;16.20;99.90
14473;DHT22;7322;50.872;4.386;2022-09-09T02:55:17;16.30;99.90
14473;DHT22;7322;50.872;4.386;2022-09-09T02:57:47;16.20;99.90
14473;DHT22;7322;50.872;4.386;2022-09-09T03:00:15;16.30;99.90
14473;DHT22;7322;50.872;4.386;2022-09-09T03:02:42;16.20;99.90
14473;DHT22;7322;50.872;4.386;2022-09-09T03:05:10;16.10;99.90
14473;DHT22;7322;50.872;4.386;2022-09-09T03:07:38;16.00;99.90
14473;DHT22;7322;50.872;4.386;2022-09-09T03:10:08;16.10;99.90
14473;DHT22;7322;50.872;4.386;2022-09-09T03:12:36;16.10;99.90
14473;DHT22;7322;50.872;4.386;2022-09-09T03:15:05;16.20;99.90
14473;DHT22;7322;50.872;4.386;2022-09-09T03:17:33;16.20;99.90
14473;DHT22;7322;50.872;4.386;2022-09-09T03:20:01;16.20;99.90
14473;DHT22;7322;50.872;4.386;2022-09-09T03:22:28;16.20;99.90
14473;DHT22;7322;50.872;4.386;2022-09-09T03:24:55;16.10;99.90
14473;DHT22;7322;50.872;4.386;2022-09-09T03:27:22;16.00;99.90
14473;DHT22;7322;50.872;4.386;2022-09-09T03:29:49;16.10;99.90
14473;DHT22;7322;50.872;4.386;2022-09-09T03:32:17;16.00;99.90
14473;DHT22;7322;50.872;4.386;2022-09-09T03:34:45;16.00;99.90
14473;DHT22;7322;50.872;4.386;2022-09-09T03:37:13;16.00;99.90
14473;DHT22;7322;50.872;4.386;2022-09-09T03:39:40;16.00;99.90
14473;DHT22;7322;50.872;4.386;2022-09-09T03:42:07;15.90;99.90
14473;DHT22;7322;50.872;4.386;2022-09-09T03:44:35;15.90;99.90
14473;DHT22;7322;50.872;4.386;2022-09-09T03:47:04;15.90;99.90
14473;DHT22;7322;50.872;4.386;2022-09-09T03:49:46;15.90;99.90
14473;DHT22;7322;50.872;4.386;2022-09-09T03:52:16;15.90;99.90
14473;DHT22;7322;50.872;4.386;2022-09-09T03:54:44;16.00;99.90
14473;DHT22;7322;50.872;4.386;2022-09-09T03:57:11;16.00;99.90
14473;DHT22;7322;50.872;4.386;2022-09-09T03:59:39;15.90;99.90
14473;DHT22;7322;50.872;4.386;2022-09-09T04:02:06;15.90;99.90
14473;DHT22;7322;50.872;4.386;2022-09-09T04:04:35;15.90;99.90
14473;DHT22;7322;50.872;4.386;2022-09-09T04:07:23;15.90;99.90
14473;DHT22;7322;50.872;4.386;2022-09-09T04:09:51;16.00;99.90
14473;DHT22;7322;50.872;4.386;2022-09-09T04:12:18;15.90;99.90
14473;DHT22;7322;50.872;4.386;2022-09-09T04:14:45;16.00;99.90
14473;DHT22;7322;50.872;4.386;2022-09-09T04:17:24;16.10;99.90
14473;DHT22;7322;50.872;4.386;2022-09-09T04:19:54;16.00;99.90
14473;DHT22;7322;50.872;4.386;2022-09-09T04:22:29;16.00;99.90
14473;DHT22;7322;50.872;4.386;2022-09-09T04:25:17;16.00;99.90
14473;DHT22;7322;50.872;4.386;2022-09-09T04:27:58;16.00;99.90
14473;DHT22;7322;50.872;4.386;2022-09-09T04:30:27;16.00;99.90
14473;DHT22;7322;50.872;4.386;2022-09-09T04:33:07;16.00;99.90
14473;DHT22;7322;50.872;4.386;2022-09-09T04:35:37;15.90;99.90
14473;DHT22;7322;50.872;4.386;2022-09-09T04:38:12;15.90;99.90
14473;DHT22;7322;50.872;4.386;2022-09-09T04:40:42;15.90;99.90
14473;DHT22;7322;50.872;4.386;2022-09-09T04:43:11;15.90;99.90
14473;DHT22;7322;50.872;4.386;2022-09-09T04:45:38;15.80;99.90
14473;DHT22;7322;50.872;4.386;2022-09-09T04:48:11;15.80;99.90
14473;DHT22;7322;50.872;4.386;2022-09-09T04:51:05;15.80;99.90
14473;DHT22;7322;50.872;4.386;2022-09-09T04:53:36;15.80;99.90
14473;DHT22;7322;50.872;4.386;2022-09-09T04:56:05;15.80;99.90
14473;DHT22;7322;50.872;4.386;2022-09-09T04:58:32;15.70;99.90
14473;DHT22;7322;50.872;4.386;2022-09-09T05:01:05;15.70;99.90
14473;DHT22;7322;50.872;4.386;2022-09-09T05:03:39;15.70;99.90
14473;DHT22;7322;50.872;4.386;2022-09-09T05:06:08;15.70;99.90
14473;DHT22;7322;50.872;4.386;2022-09-09T05:08:38;15.70;99.90
14473;DHT22;7322;50.872;4.386;2022-09-09T05:11:14;15.70;99.90
14473;DHT22;7322;50.872;4.386;2022-09-09T05:13:44;15.80;99.90
14473;DHT22;7322;50.872;4.386;2022-09-09T05:16:11;15.70;99.90
14473;DHT22;7322;50.872;4.386;2022-09-09T05:18:38;15.80;99.90
14473;DHT22;7322;50.872;4.386;2022-09-09T05:21:07;15.80;99.90
14473;DHT22;7322;50.872;4.386;2022-09-09T05:23:36;15.80;99.90
14473;DHT22;7322;50.872;4.386;2022-09-09T05:26:06;15.90;99.90
14473;DHT22;7322;50.872;4.386;2022-09-09T05:28:34;16.00;99.90
14473;DHT22;7322;50.872;4.386;2022-09-09T05:31:03;16.10;99.90
14473;DHT22;7322;50.872;4.386;2022-09-09T05:33:31;16.10;99.90
14473;DHT22;7322;50.872;4.386;2022-09-09T05:35:59;16.10;99.90
14473;DHT22;7322;50.872;4.386;2022-09-09T05:38:27;16.10;99.90
14473;DHT22;7322;50.872;4.386;2022-09-09T05:40:55;16.20;99.90
14473;DHT22;7322;50.872;4.386;2022-09-09T05:43:23;16.20;99.90
14473;DHT22;7322;50.872;4.386;2022-09-09T05:45:59;16.10;99.90
14473;DHT22;7322;50.872;4.386;2022-09-09T05:48:28;16.10;99.90
14473;DHT22;7322;50.872;4.386;2022-09-09T05:50:57;16.10;99.90
14473;DHT22;7322;50.872;4.386;2022-09-09T05:53:24;16.10;99.90
14473;DHT22;7322;50.872;4.386;2022-09-09T05:55:59;16.00;99.90
14473;DHT22;7322;50.872;4.386;2022-09-09T05:58:28;16.10;99.90
14473;DHT22;7322;50.872;4.386;2022-09-09T06:01:07;16.20;99.90
14473;DHT22;7322;50.872;4.386;2022-09-09T06:04:09;16.30;99.90
14473;DHT22;7322;50.872;4.386;2022-09-09T06:06:57;16.20;99.90
14473;DHT22;7322;50.872;4.386;2022-09-09T06:09:24;16.30;99.90
14473;DHT22;7322;50.872;4.386;2022-09-09T06:11:53;16.30;99.90
14473;DHT22;7322;50.872;4.386;2022-09-09T06:14:27;16.40;99.90
14473;DHT22;7322;50.872;4.386;2022-09-09T06:16:56;16.40;99.90
14473;DHT22;7322;50.872;4.386;2022-09-09T06:19:29;16.40;99.90
14473;DHT22;7322;50.872;4.386;2022-09-09T06:21:56;16.60;99.90
14473;DHT22;7322;50.872;4.386;2022-09-09T06:24:24;16.60;99.90
14473;DHT22;7322;50.872;4.386;2022-09-09T06:26:53;16.70;99.90
14473;DHT22;7322;50.872;4.386;2022-09-09T06:29:20;16.90;99.90
14473;DHT22;7322;50.872;4.386;2022-09-09T06:31:47;17.00;99.90
14473;DHT22;7322;50.872;4.386;2022-09-09T06:34:14;17.10;99.90
14473;DHT22;7322;50.872;4.386;2022-09-09T06:36:41;16.90;99.90
14473;DHT22;7322;50.872;4.386;2022-09-09T06:39:08;17.10;99.90
14473;DHT22;7322;50.872;4.386;2022-09-09T06:41:37;17.00;99.90
14473;DHT22;7322;50.872;4.386;2022-09-09T06:44:06;16.90;99.90
14473;DHT22;7322;50.872;4.386;2022-09-09T06:46:33;16.90;99.90
14473;DHT22;7322;50.872;4.386;2022-09-09T06:49:01;16.80;99.90
14473;DHT22;7322;50.872;4.386;2022-09-09T06:51:29;17.00;99.90
14473;DHT22;7322;50.872;4.386;2022-09-09T06:53:57;16.90;99.90
14473;DHT22;7322;50.872;4.386;2022-09-09T06:56:26;16.80;99.90
14473;DHT22;7322;50.872;4.386;2022-09-09T06:58:55;16.80;99.90
14473;DHT22;7322;50.872;4.386;2022-09-09T07:01:26;16.90;99.90
14473;DHT22;7322;50.872;4.386;2022-09-09T07:03:55;17.10;99.90
14473;DHT22;7322;50.872;4.386;2022-09-09T07:06:25;17.20;99.90
14473;DHT22;7322;50.872;4.386;2022-09-09T07:08:53;17.20;99.90
14473;DHT22;7322;50.872;4.386;2022-09-09T07:11:22;17.20;99.90
14473;DHT22;7322;50.872;4.386;2022-09-09T07:13:51;17.30;99.90
14473;DHT22;7322;50.872;4.386;2022-09-09T07:16:20;17.30;99.90
14473;DHT22;7322;50.872;4.386;2022-09-09T07:18:49;17.30;99.90
14473;DHT22;7322;50.872;4.386;2022-09-09T07:21:18;17.30;99.90
14473;DHT22;7322;50.872;4.386;2022-09-09T07:23:46;17.20;99.90
14473;DHT22;7322;50.872;4.386;2022-09-09T07:26:15;17.20;99.90
14473;DHT22;7322;50.872;4.386;2022-09-09T07:28:43;17.30;99.90
14473;DHT22;7322;50.872;4.386;2022-09-09T07:31:14;17.20;99.90
14473;DHT22;7322;50.872;4.386;2022-09-09T07:33:43;17.20;99.90
14473;DHT22;7322;50.872;4.386;2022-09-09T07:36:14;17.20;99.90
14473;DHT22;7322;50.872;4.386;2022-09-09T07:38:43;17.20;99.90
14473;DHT22;7322;50.872;4.386;2022-09-09T07:41:13;17.30;99.90
14473;DHT22;7322;50.872;4.386;2022-09-09T07:43:41;17.40;99.90
14473;DHT22;7322;50.872;4.386;2022-09-09T07:46:08;17.20;99.90
14473;DHT22;7322;50.872;4.386;2022-09-09T07:48:36;17.20;99.90
14473;DHT22;7322;50.872;4.386;2022-09-09T07:51:09;17.10;99.90
14473;DHT22;7322;50.872;4.386;2022-09-09T07:53:38;17.10;99.90
14473;DHT22;7322;50.872;4.386;2022-09-09T07:56:07;17.20;99.90
14473;DHT22;7322;50.872;4.386;2022-09-09T07:58:35;17.30;99.90
14473;DHT22;7322;50.872;4.386;2022-09-09T08:01:07;17.40;99.90
14473;DHT22;7322;50.872;4.386;2022-09-09T08:03:37;17.70;99.90
14473;DHT22;7322;50.872;4.386;2022-09-09T08:06:07;17.70;99.90
14473;DHT22;7322;50.872;4.386;2022-09-09T08:08:37;17.70;99.90
14473;DHT22;7322;50.872;4.386;2022-09-09T08:11:11;17.80;99.90
14473;DHT22;7322;50.872;4.386;2022-09-09T08:13:38;17.90;99.90
14473;DHT22;7322;50.872;4.386;2022-09-09T08:16:08;17.90;99.90
14473;DHT22;7322;50.872;4.386;2022-09-09T08:18:35;17.90;99.90
14473;DHT22;7322;50.872;4.386;2022-09-09T08:21:08;18.10;99.90
14473;DHT22;7322;50.872;4.386;2022-09-09T08:23:40;18.10;99.90
14473;DHT22;7322;50.872;4.386;2022-09-09T08:26:10;18.10;99.90
14473;DHT22;7322;50.872;4.386;2022-09-09T08:28:38;18.20;99.90
14473;DHT22;7322;50.872;4.386;2022-09-09T08:31:07;17.90;99.90
14473;DHT22;7322;50.872;4.386;2022-09-09T08:33:34;18.10;99.90
14473;DHT22;7322;50.872;4.386;2022-09-09T08:36:11;18.00;99.90
14473;DHT22;7322;50.872;4.386;2022-09-09T08:38:40;18.10;99.90
14473;DHT22;7322;50.872;4.386;2022-09-09T08:41:31;18.10;99.90
14473;DHT22;7322;50.872;4.386;2022-09-09T08:44:06;17.90;99.90
14473;DHT22;7322;50.872;4.386;2022-09-09T08:46:40;17.80;99.90
14473;DHT22;7322;50.872;4.386;2022-09-09T08:49:20;17.90;99.90
14473;DHT22;7322;50.872;4.386;2022-09-09T08:51:53;17.50;99.90
14473;DHT22;7322;50.872;4.386;2022-09-09T08:54:23;17.40;99.90
14473;DHT22;7322;50.872;4.386;2022-09-09T08:56:51;17.20;99.90
14473;DHT22;7322;50.872;4.386;2022-09-09T08:59:19;17.20;99.90
14473;DHT22;7322;50.872;4.386;2022-09-09T09:02:00;17.20;99.90
14473;DHT22;7322;50.872;4.386;2022-09-09T09:04:40;17.30;99.90
14473;DHT22;7322;50.872;4.386;2022-09-09T09:07:18;17.50;99.90
14473;DHT22;7322;50.872;4.386;2022-09-09T09:09:57;17.50;99.90
14473;DHT22;7322;50.872;4.386;2022-09-09T09:12:32;17.50;99.90
14473;DHT22;7322;50.872;4.386;2022-09-09T09:15:02;17.70;99.90
14473;DHT22;7322;50.872;4.386;2022-09-09T09:17:37;17.70;99.90
14473;DHT22;7322;50.872;4.386;2022-09-09T09:20:10;17.30;99.90
14473;DHT22;7322;50.872;4.386;2022-09-09T09:22:47;17.30;99.90
14473;DHT22;7322;50.872;4.386;2022-09-09T09:25:20;17.30;99.90
14473;DHT22;7322;50.872;4.386;2022-09-09T09:27:53;17.40;99.90
14473;DHT22;7322;50.872;4.386;2022-09-09T09:30:26;17.50;99.90
14473;DHT22;7322;50.872;4.386;2022-09-09T09:32:58;17.40;99.90
14473;DHT22;7322;50.872;4.386;2022-09-09T09:35:27;17.40;99.90
14473;DHT22;7322;50.872;4.386;2022-09-09T09:37:54;17.50;99.90
14473;DHT22;7322;50.872;4.386;2022-09-09T09:40:23;17.50;99.90
14473;DHT22;7322;50.872;4.386;2022-09-09T09:42:52;17.30;99.90
14473;DHT22;7322;50.872;4.386;2022-09-09T09:45:28;17.20;99.90
14473;DHT22;7322;50.872;4.386;2022-09-09T09:48:02;17.10;99.90
14473;DHT22;7322;50.872;4.386;2022-09-09T09:50:30;17.10;99.90
14473;DHT22;7322;50.872;4.386;2022-09-09T09:52:58;17.10;99.90
14473;DHT22;7322;50.872;4.386;2022-09-09T09:55:28;17.20;99.90
14473;DHT22;7322;50.872;4.386;2022-09-09T09:58:01;17.40;99.90
14473;DHT22;7322;50.872;4.386;2022-09-09T10:00:29;17.50;99.90
14473;DHT22;7322;50.872;4.386;2022-09-09T10:03:00;17.60;99.90
14473;DHT22;7322;50.872;4.386;2022-09-09T10:05:28;17.70;99.90
14473;DHT22;7322;50.872;4.386;2022-09-09T10:08:02;17.60;99.90
14473;DHT22;7322;50.872;4.386;2022-09-09T10:10:39;17.60;99.90
14473;DHT22;7322;50.872;4.386;2022-09-09T10:13:11;17.60;99.90
14473;DHT22;7322;50.872;4.386;2022-09-09T10:15:47;17.60;99.90
14473;DHT22;7322;50.872;4.386;2022-09-09T10:18:26;17.60;99.90
14473;DHT22;7322;50.872;4.386;2022-09-09T10:21:01;17.70;99.90
14473;DHT22;7322;50.872;4.386;2022-09-09T10:23:54;17.60;99.90
14473;DHT22;7322;50.872;4.386;2022-09-09T10:26:38;17.70;99.90
14473;DHT22;7322;50.872;4.386;2022-09-09T10:29:31;17.80;99.90
14473;DHT22;7322;50.872;4.386;2022-09-09T10:32:14;17.90;99.90
14473;DHT22;7322;50.872;4.386;2022-09-09T10:34:55;18.10;99.90
14473;DHT22;7322;50.872;4.386;2022-09-09T10:37:41;18.70;99.90
14473;DHT22;7322;50.872;4.386;2022-09-09T10:40:26;19.20;99.90
14473;DHT22;7322;50.872;4.386;2022-09-09T10:43:03;19.30;99.90
14473;DHT22;7322;50.872;4.386;2022-09-09T10:45:44;19.60;99.90
14473;DHT22;7322;50.872;4.386;2022-09-09T10:48:33;19.90;99.90
14473;DHT22;7322;50.872;4.386;2022-09-09T10:51:22;20.50;99.90
14473;DHT22;7322;50.872;4.386;2022-09-09T10:54:05;20.60;99.90
14473;DHT22;7322;50.872;4.386;2022-09-09T10:56:35;20.50;99.90
14473;DHT22;7322;50.872;4.386;2022-09-09T10:59:06;20.40;99.90
14473;DHT22;7322;50.872;4.386;2022-09-09T11:01:39;20.50;99.90
14473;DHT22;7322;50.872;4.386;2022-09-09T11:04:13;20.90;99.90
14473;DHT22;7322;50.872;4.386;2022-09-09T11:06:45;21.00;99.90
14473;DHT22;7322;50.872;4.386;2022-09-09T11:09:18;20.60;99.90
14473;DHT22;7322;50.872;4.386;2022-09-09T11:11:50;20.40;99.90
14473;DHT22;7322;50.872;4.386;2022-09-09T11:14:26;20.30;99.90
14473;DHT22;7322;50.872;4.386;2022-09-09T11:16:58;20.30;99.90
14473;DHT22;7322;50.872;4.386;2022-09-09T11:19:31;20.00;99.90
14473;DHT22;7322;50.872;4.386;2022-09-09T11:22:03;19.80;99.90
14473;DHT22;7322;50.872;4.386;2022-09-09T11:24:35;19.80;99.90
14473;DHT22;7322;50.872;4.386;2022-09-09T11:27:19;19.90;99.90
14473;DHT22;7322;50.872;4.386;2022-09-09T11:30:17;19.70;99.90
14473;DHT22;7322;50.872;4.386;2022-09-09T11:33:33;19.70;99.90
14473;DHT22;7322;50.872;4.386;2022-09-09T11:36:16;19.70;99.90
14473;DHT22;7322;50.872;4.386;2022-09-09T11:38:45;19.60;99.90
14473;DHT22;7322;50.872;4.386;2022-09-09T11:41:14;19.30;99.90
14473;DHT22;7322;50.872;4.386;2022-09-09T11:43:43;19.00;99.90
14473;DHT22;7322;50.872;4.386;2022-09-09T11:46:14;19.00;99.90
14473;DHT22;7322;50.872;4.386;2022-09-09T11:48:44;19.20;99.90
14473;DHT22;7322;50.872;4.386;2022-09-09T11:51:25;19.30;99.90
14473;DHT22;7322;50.872;4.386;2022-09-09T11:53:56;19.30;99.90
14473;DHT22;7322;50.872;4.386;2022-09-09T11:56:31;19.20;99.90
14473;DHT22;7322;50.872;4.386;2022-09-09T11:59:01;19.20;99.90
14473;DHT22;7322;50.872;4.386;2022-09-09T12:01:35;19.50;99.90
14473;DHT22;7322;50.872;4.386;2022-09-09T12:04:12;19.50;99.90
14473;DHT22;7322;50.872;4.386;2022-09-09T12:06:45;19.30;99.90
14473;DHT22;7322;50.872;4.386;2022-09-09T12:09:42;19.40;99.90
14473;DHT22;7322;50.872;4.386;2022-09-09T12:12:26;19.30;99.90
14473;DHT22;7322;50.872;4.386;2022-09-09T12:15:22;19.30;99.90
14473;DHT22;7322;50.872;4.386;2022-09-09T12:18:02;19.20;99.90
14473;DHT22;7322;50.872;4.386;2022-09-09T12:20:35;19.40;99.90
14473;DHT22;7322;50.872;4.386;2022-09-09T12:26:07;19.50;99.90
14473;DHT22;7322;50.872;4.386;2022-09-09T12:28:47;19.60;99.90
14473;DHT22;7322;50.872;4.386;2022-09-09T12:31:21;19.50;99.90
14473;DHT22;7322;50.872;4.386;2022-09-09T12:33:51;19.30;99.90
14473;DHT22;7322;50.872;4.386;2022-09-09T12:36:20;19.60;99.90
14473;DHT22;7322;50.872;4.386;2022-09-09T12:38:48;19.70;99.90
14473;DHT22;7322;50.872;4.386;2022-09-09T12:41:21;19.90;99.90
14473;DHT22;7322;50.872;4.386;2022-09-09T12:43:49;20.10;99.90
14473;DHT22;7322;50.872;4.386;2022-09-09T12:46:23;20.10;99.90
14473;DHT22;7322;50.872;4.386;2022-09-09T12:48:55;20.30;99.90
14473;DHT22;7322;50.872;4.386;2022-09-09T12:51:25;20.20;99.90
14473;DHT22;7322;50.872;4.386;2022-09-09T12:53:53;20.30;99.90
14473;DHT22;7322;50.872;4.386;2022-09-09T12:56:24;20.10;99.90
14473;DHT22;7322;50.872;4.386;2022-09-09T12:58:54;20.00;99.90
14473;DHT22;7322;50.872;4.386;2022-09-09T13:01:24;20.30;99.90
14473;DHT22;7322;50.872;4.386;2022-09-09T13:03:52;20.40;99.90
14473;DHT22;7322;50.872;4.386;2022-09-09T13:06:23;20.70;99.90
14473;DHT22;7322;50.872;4.386;2022-09-09T13:08:51;20.90;99.90
14473;DHT22;7322;50.872;4.386;2022-09-09T13:11:21;21.10;99.90
14473;DHT22;7322;50.872;4.386;2022-09-09T13:13:52;20.90;99.90
14473;DHT22;7322;50.872;4.386;2022-09-09T13:16:23;20.80;99.90
14473;DHT22;7322;50.872;4.386;2022-09-09T13:18:52;20.70;99.90
14473;DHT22;7322;50.872;4.386;2022-09-09T13:21:37;20.90;99.90
14473;DHT22;7322;50.872;4.386;2022-09-09T13:24:25;20.90;99.90
14473;DHT22;7322;50.872;4.386;2022-09-09T13:27:03;20.70;99.90
14473;DHT22;7322;50.872;4.386;2022-09-09T13:29:32;20.60;99.90
14473;DHT22;7322;50.872;4.386;2022-09-09T13:32:04;20.70;99.90
14473;DHT22;7322;50.872;4.386;2022-09-09T13:34:34;20.70;99.90
14473;DHT22;7322;50.872;4.386;2022-09-09T13:37:06;20.80;99.90
14473;DHT22;7322;50.872;4.386;2022-09-09T13:39:34;20.90;99.90
14473;DHT22;7322;50.872;4.386;2022-09-09T13:42:04;20.90;99.90
14473;DHT22;7322;50.872;4.386;2022-09-09T13:44:36;20.90;99.90
14473;DHT22;7322;50.872;4.386;2022-09-09T13:47:18;20.90;99.90
14473;DHT22;7322;50.872;4.386;2022-09-09T13:49:46;21.10;99.90
14473;DHT22;7322;50.872;4.386;2022-09-09T13:52:20;21.40;99.90
14473;DHT22;7322;50.872;4.386;2022-09-09T13:54:54;21.70;99.90
14473;DHT22;7322;50.872;4.386;2022-09-09T13:57:24;21.80;99.90
14473;DHT22;7322;50.872;4.386;2022-09-09T13:59:54;21.70;99.90
14473;DHT22;7322;50.872;4.386;2022-09-09T14:02:28;21.60;99.90
14473;DHT22;7322;50.872;4.386;2022-09-09T14:05:21;21.20;99.90
14473;DHT22;7322;50.872;4.386;2022-09-09T14:07:50;21.10;99.90
14473;DHT22;7322;50.872;4.386;2022-09-09T14:10:36;21.00;99.90
14473;DHT22;7322;50.872;4.386;2022-09-09T14:13:16;21.30;99.90
14473;DHT22;7322;50.872;4.386;2022-09-09T14:15:45;21.40;99.90
14473;DHT22;7322;50.872;4.386;2022-09-09T14:18:14;21.30;99.90
14473;DHT22;7322;50.872;4.386;2022-09-09T14:20:42;21.30;99.90
14473;DHT22;7322;50.872;4.386;2022-09-09T14:23:12;21.20;99.90
14473;DHT22;7322;50.872;4.386;2022-09-09T14:25:41;21.00;99.90
14473;DHT22;7322;50.872;4.386;2022-09-09T14:28:12;21.10;99.90
14473;DHT22;7322;50.872;4.386;2022-09-09T14:30:40;21.10;99.90
14473;DHT22;7322;50.872;4.386;2022-09-09T14:33:10;20.90;99.90
14473;DHT22;7322;50.872;4.386;2022-09-09T14:35:37;20.90;99.90
14473;DHT22;7322;50.872;4.386;2022-09-09T14:38:06;21.00;99.90
14473;DHT22;7322;50.872;4.386;2022-09-09T14:40:36;21.30;99.90
14473;DHT22;7322;50.872;4.386;2022-09-09T14:43:05;21.30;99.90
14473;DHT22;7322;50.872;4.386;2022-09-09T14:45:32;21.30;99.90
14473;DHT22;7322;50.872;4.386;2022-09-09T14:47:59;21.40;99.90
14473;DHT22;7322;50.872;4.386;2022-09-09T14:50:26;21.50;99.90
14473;DHT22;7322;50.872;4.386;2022-09-09T14:52:55;21.60;99.90
14473;DHT22;7322;50.872;4.386;2022-09-09T14:55:22;21.60;99.90
14473;DHT22;7322;50.872;4.386;2022-09-09T14:57:50;21.50;99.90
14473;DHT22;7322;50.872;4.386;2022-09-09T15:00:17;21.50;99.90
14473;DHT22;7322;50.872;4.386;2022-09-09T15:02:44;21.40;99.90
14473;DHT22;7322;50.872;4.386;2022-09-09T15:05:11;21.50;99.90
14473;DHT22;7322;50.872;4.386;2022-09-09T15:07:38;21.60;99.90
14473;DHT22;7322;50.872;4.386;2022-09-09T15:10:07;21.60;99.90
14473;DHT22;7322;50.872;4.386;2022-09-09T15:12:34;21.60;99.90
14473;DHT22;7322;50.872;4.386;2022-09-09T15:15:04;21.30;99.90
14473;DHT22;7322;50.872;4.386;2022-09-09T15:17:31;21.30;99.90
14473;DHT22;7322;50.872;4.386;2022-09-09T15:19:58;21.30;99.90
14473;DHT22;7322;50.872;4.386;2022-09-09T15:22:25;21.10;99.90
14473;DHT22;7322;50.872;4.386;2022-09-09T15:24:57;21.10;99.90
14473;DHT22;7322;50.872;4.386;2022-09-09T15:27:25;21.20;99.90
14473;DHT22;7322;50.872;4.386;2022-09-09T15:29:52;21.10;99.90
14473;DHT22;7322;50.872;4.386;2022-09-09T15:32:21;21.10;99.90
14473;DHT22;7322;50.872;4.386;2022-09-09T15:34:48;21.00;99.90
14473;DHT22;7322;50.872;4.386;2022-09-09T15:37:16;21.00;99.90
14473;DHT22;7322;50.872;4.386;2022-09-09T15:39:44;21.00;99.90
14473;DHT22;7322;50.872;4.386;2022-09-09T15:42:11;20.80;99.90
14473;DHT22;7322;50.872;4.386;2022-09-09T15:44:39;20.70;99.90
14473;DHT22;7322;50.872;4.386;2022-09-09T15:47:10;20.60;99.90
14473;DHT22;7322;50.872;4.386;2022-09-09T15:49:39;20.50;99.90
14473;DHT22;7322;50.872;4.386;2022-09-09T15:52:06;20.60;99.90
14473;DHT22;7322;50.872;4.386;2022-09-09T15:54:36;20.50;99.90
14473;DHT22;7322;50.872;4.386;2022-09-09T15:57:06;20.50;99.90
14473;DHT22;7322;50.872;4.386;2022-09-09T15:59:34;20.70;99.90
14473;DHT22;7322;50.872;4.386;2022-09-09T16:02:03;20.80;99.90
14473;DHT22;7322;50.872;4.386;2022-09-09T16:04:30;20.70;99.90
14473;DHT22;7322;50.872;4.386;2022-09-09T16:07:02;20.80;99.90
14473;DHT22;7322;50.872;4.386;2022-09-09T16:09:32;20.90;99.90
14473;DHT22;7322;50.872;4.386;2022-09-09T16:12:00;21.00;99.90
14473;DHT22;7322;50.872;4.386;2022-09-09T16:14:32;21.00;99.90
14473;DHT22;7322;50.872;4.386;2022-09-09T16:17:01;21.00;99.90
14473;DHT22;7322;50.872;4.386;2022-09-09T16:19:28;20.90;99.90